Time;durP1;ratioP1;P1;durP2;ratioP2;P2;SDS_P1;SDS_P2;PMS_P1;PMS_P2;Temp;Humidity;BMP_temperature;BMP_pressure;BME280_temperature;BME280_humidity;BME280_pressure;Samples;Min_cycle;Max_cycle;Signal;HPM_P1;HPM_P2
2023/04/05 00:02:02;;;;;;;;;;;;;;;-140.72;100.00;52918.47;5029816;28;20377;-69
2023/04/05 00:04:29;;;;;;;;;;;;;;;-140.72;100.00;52926.59;5030337;28;19921;-68
2023/04/05 00:06:56;;;;;;;;;;;;;;;-140.72;100.00;52892.09;5031924;28;19959;-68
2023/04/05 00:09:21;;;;;;;;;;;;;;;-140.72;100.00;52886.00;5031895;27;19922;-69
2023/04/05 00:11:47;;;;;;;;;;;;;;;-140.72;100.00;52898.16;5028505;28;19967;-68
2023/04/05 00:14:12;;;;;;;;;;;;;;;-140.72;100.00;52867.72;5028540;28;19921;-68
2023/04/05 00:16:38;;;;;;;;;;;;;;;-140.72;100.00;52873.81;5030252;28;19921;-68
2023/04/05 00:19:03;;;;;;;;;;;;;;;-140.72;100.00;52896.16;5031901;28;20367;-68
2023/04/05 00:21:29;;;;;;;;;;;;;;;-140.72;100.00;52910.34;5030755;28;19925;-68
2023/04/05 00:23:57;;;;;;;;;;;;;;;-140.72;100.00;52898.16;5029836;28;20023;-69
2023/04/05 00:26:23;;;;;;;;;;;;;;;-140.72;100.00;52922.53;5032049;28;20376;-69
2023/04/05 00:28:48;;;;;;;;;;;;;;;-140.72;100.00;52914.41;5020963;28;19917;-69
2023/04/05 00:31:14;;;;;;;;;;;;;;;-140.72;100.00;52894.13;5019522;28;19921;-69
2023/04/05 00:33:39;;;;;;;;;;;;;;;-140.72;100.00;52875.84;5025941;28;19940;-69
2023/04/05 00:36:09;;;;;;;;;;;;;;;-140.72;100.00;52898.16;5025565;28;19921;-69
2023/04/05 00:38:34;;;;;;;;;;;;;;;-140.72;100.00;52930.66;5024588;28;19925;-69
2023/04/05 00:41:22;;;;;;;;;;;;;;;-140.72;100.00;52892.09;5029005;28;19924;-69
2023/04/05 00:43:47;;;;;;;;;;;;;;;-140.72;100.00;52869.75;5019797;28;19921;-69
2023/04/05 00:46:25;;;;;;;;;;;;;;;-140.72;100.00;52890.06;5019155;28;20083;-68
2023/04/05 00:49:05;;;;;;;;;;;;;;;-140.72;100.00;52914.41;5023766;28;19961;-68
2023/04/05 00:51:32;;;;;;;;;;;;;;;-140.72;100.00;52908.31;5030517;28;20017;-68
2023/04/05 00:53:57;;;;;;;;;;;;;;;-140.72;100.00;52881.94;5031407;28;19925;-68
2023/04/05 00:56:23;;;;;;;;;;;;;;;-140.72;100.00;52902.22;5027665;28;19966;-68
2023/04/05 00:58:50;;;;;;;;;;;;;;;-140.72;100.00;52948.91;5023310;28;20283;-69
2023/04/05 01:01:17;;;;;;;;;;;;;;;-140.72;100.00;52886.00;5030113;28;19932;-69
2023/04/05 01:03:48;;;;;;;;;;;;;;;-140.72;100.00;52930.66;5030938;28;19924;-69
2023/04/05 01:06:32;;;;;;;;;;;;;;;-140.72;100.00;52932.66;5033816;28;19980;-69
2023/04/05 01:09:08;;;;;;;;;;;;;;;-140.72;100.00;52888.03;5027585;28;20292;-69
2023/04/05 01:11:34;;;;;;;;;;;;;;;-140.72;100.00;52914.41;5030167;28;19917;-68
2023/04/05 01:14:00;;;;;;;;;;;;;;;-140.72;100.00;52950.94;5024921;28;19921;-69
2023/04/05 01:16:26;;;;;;;;;;;;;;;-140.72;100.00;52942.81;5015325;28;20374;-69
2023/04/05 01:18:55;;;;;;;;;;;;;;;-140.72;100.00;52918.47;5048108;28;19931;-69
2023/04/05 01:21:22;;;;;;;;;;;;;;;-140.72;100.00;52924.56;5037101;28;19971;-69
2023/04/05 01:23:50;;;;;;;;;;;;;;;-140.72;100.00;52910.34;5017883;28;19921;-68
2023/04/05 01:26:18;;;;;;;;;;;;;;;-140.72;100.00;52928.63;5027178;28;19917;-69
2023/04/05 01:29:03;;;;;;;;;;;;;;;-140.72;100.00;52946.88;5027572;28;20001;-69
2023/04/05 01:31:28;;;;;;;;;;;;;;;-140.72;100.00;52942.81;5026907;28;19925;-69
2023/04/05 01:34:02;;;;;;;;;;;;;;;-140.72;100.00;52920.50;5024546;28;19962;-68
2023/04/05 01:36:27;;;;;;;;;;;;;;;-140.72;100.00;52948.91;5029984;28;19925;-69
2023/04/05 01:38:54;;;;;;;;;;;;;;;-140.72;100.00;52936.72;5026657;28;19988;-69
2023/04/05 01:41:20;;;;;;;;;;;;;;;-140.72;100.00;52914.41;5026199;28;19925;-68
2023/04/05 01:43:45;;;;;;;;;;;;;;;-140.72;100.00;52916.44;5012157;28;19921;-69
2023/04/05 01:46:11;;;;;;;;;;;;;;;-140.72;100.00;52906.28;5012713;28;19969;-68
2023/04/05 01:48:36;;;;;;;;;;;;;;;-140.72;100.00;52938.75;5063963;27;19990;-69
2023/04/05 01:51:01;;;;;;;;;;;;;;;-140.72;100.00;52938.75;5025703;28;19932;-69
2023/04/05 01:53:26;;;;;;;;;;;;;;;-140.72;100.00;52969.19;5025380;28;19928;-69
2023/04/05 01:55:52;;;;;;;;;;;;;;;-140.72;100.00;52904.25;5029675;28;19921;-69
2023/04/05 01:58:17;;;;;;;;;;;;;;;-140.72;100.00;52938.75;5029638;28;19927;-70
2023/04/05 02:00:42;;;;;;;;;;;;;;;-140.72;100.00;52940.78;5019321;28;19922;-69
2023/04/05 02:03:07;;;;;;;;;;;;;;;-140.72;100.00;52894.13;5021354;28;19921;-69
2023/04/05 02:05:32;;;;;;;;;;;;;;;-140.72;100.00;52963.13;5033231;28;19925;-69
2023/04/05 02:07:58;;;;;;;;;;;;;;;-140.72;100.00;52940.78;5029922;28;20322;-69
2023/04/05 02:10:23;;;;;;;;;;;;;;;-140.72;100.00;52920.50;5028758;28;19999;-69
2023/04/05 02:12:48;;;;;;;;;;;;;;;-140.72;100.00;52938.75;5027516;28;20332;-69
2023/04/05 02:15:13;;;;;;;;;;;;;;;-140.72;100.00;52928.63;5027181;28;19921;-69
2023/04/05 02:17:39;;;;;;;;;;;;;;;-140.72;100.00;52981.38;5030269;28;20020;-69
2023/04/05 02:20:09;;;;;;;;;;;;;;;-140.72;100.00;52963.13;5028302;28;19925;-69
2023/04/05 02:22:35;;;;;;;;;;;;;;;-140.72;100.00;52928.63;5029868;28;19917;-69
2023/04/05 02:25:02;;;;;;;;;;;;;;;-140.72;100.00;52922.53;5028374;28;19924;-68
2023/04/05 02:27:27;;;;;;;;;;;;;;;-140.72;100.00;52973.25;5028621;28;19966;-69
2023/04/05 02:29:54;;;;;;;;;;;;;;;-140.72;100.00;52938.75;5029490;28;20360;-68
2023/04/05 02:32:19;;;;;;;;;;;;;;;-140.72;100.00;52902.22;5028420;28;19917;-68
2023/04/05 02:34:45;;;;;;;;;;;;;;;-140.72;100.00;52922.53;5022686;28;20012;-68
2023/04/05 02:37:14;;;;;;;;;;;;;;;-140.72;100.00;52928.63;5028656;28;19921;-69
2023/04/05 02:39:39;;;;;;;;;;;;;;;-140.72;100.00;52894.13;5017870;28;20019;-69
2023/04/05 02:42:06;;;;;;;;;;;;;;;-140.72;100.00;52938.75;5033597;28;19960;-68
2023/04/05 02:44:31;;;;;;;;;;;;;;;-140.72;100.00;52973.25;5030747;28;19936;-69
2023/04/05 02:46:56;;;;;;;;;;;;;;;-140.72;100.00;52948.91;5016372;28;19917;-68
2023/04/05 02:49:22;;;;;;;;;;;;;;;-140.72;100.00;52952.97;5026117;28;19982;-68
2023/04/05 02:51:47;;;;;;;;;;;;;;;-140.72;100.00;52950.94;5024795;28;19921;-69
2023/04/05 02:54:12;;;;;;;;;;;;;;;-140.72;100.00;52938.75;5036499;28;19969;-69
2023/04/05 02:56:39;;;;;;;;;;;;;;;-140.72;100.00;52969.19;5029759;28;19918;-68
2023/04/05 02:59:04;;;;;;;;;;;;;;;-140.72;100.00;52940.78;5017929;28;20393;-68
2023/04/05 03:01:31;;;;;;;;;;;;;;;-140.72;100.00;52920.50;5034520;28;19969;-68
2023/04/05 03:04:02;;;;;;;;;;;;;;;-140.72;100.00;52890.06;5032580;28;19917;-69
2023/04/05 03:06:27;;;;;;;;;;;;;;;-140.72;100.00;52918.47;5016401;28;19925;-68
2023/04/05 03:08:54;;;;;;;;;;;;;;;-140.72;100.00;52950.94;5029392;28;19924;-68
2023/04/05 03:11:20;;;;;;;;;;;;;;;-140.72;100.00;52950.94;5021092;28;19922;-68
2023/04/05 03:13:45;;;;;;;;;;;;;;;-140.72;100.00;52946.88;5045776;27;20065;-68
2023/04/05 03:16:11;;;;;;;;;;;;;;;-140.72;100.00;52942.81;5045296;27;19921;-69
2023/04/05 03:18:36;;;;;;;;;;;;;;;-140.72;100.00;52952.97;5074635;27;20352;-69
2023/04/05 03:21:03;;;;;;;;;;;;;;;-140.72;100.00;52930.66;5029778;28;20036;-69
2023/04/05 03:23:29;;;;;;;;;;;;;;;-140.72;100.00;52967.16;5030690;28;19974;-68
2023/04/05 03:26:01;;;;;;;;;;;;;;;-140.72;100.00;52969.19;5034331;28;19964;-68
2023/04/05 03:28:27;;;;;;;;;;;;;;;-140.72;100.00;52940.78;5029125;28;20303;-68
2023/04/05 03:30:53;;;;;;;;;;;;;;;-140.72;100.00;52920.50;5022996;28;19922;-68
2023/04/05 03:33:18;;;;;;;;;;;;;;;-140.72;100.00;52979.34;5030502;28;19921;-71
2023/04/05 03:35:44;;;;;;;;;;;;;;;-140.72;100.00;52930.66;5029034;28;20004;-69
2023/04/05 03:38:09;;;;;;;;;;;;;;;-140.72;100.00;52971.22;5038994;27;19922;-69
2023/04/05 03:40:34;;;;;;;;;;;;;;;-140.72;100.00;52942.81;5030511;28;19921;-69
2023/04/05 03:43:00;;;;;;;;;;;;;;;-140.72;100.00;52948.91;5029405;28;19917;-69
2023/04/05 03:45:25;;;;;;;;;;;;;;;-140.72;100.00;52971.22;5049447;28;19920;-70
2023/04/05 03:47:51;;;;;;;;;;;;;;;-140.72;100.00;52975.28;5044386;27;19929;-70
2023/04/05 03:50:16;;;;;;;;;;;;;;;-140.72;100.00;52936.72;5059806;27;19921;-70
2023/04/05 03:52:41;;;;;;;;;;;;;;;-140.72;100.00;52973.25;5028694;28;19973;-68
2023/04/05 03:55:07;;;;;;;;;;;;;;;-140.72;100.00;52948.91;5021757;28;19960;-69
2023/04/05 03:57:32;;;;;;;;;;;;;;;-140.72;100.00;52961.09;5024968;28;19966;-69
2023/04/05 03:59:58;;;;;;;;;;;;;;;-140.72;100.00;52942.81;5028912;28;19932;-69
2023/04/05 04:02:23;;;;;;;;;;;;;;;-140.72;100.00;52948.91;5023619;28;19966;-69
2023/04/05 04:04:48;;;;;;;;;;;;;;;-140.72;100.00;52952.97;5012439;28;19922;-70
2023/04/05 04:07:13;;;;;;;;;;;;;;;-140.72;100.00;52930.66;5030005;28;19932;-69
2023/04/05 04:09:39;;;;;;;;;;;;;;;-140.72;100.00;52983.41;5014366;28;19929;-70
2023/04/05 04:12:04;;;;;;;;;;;;;;;-140.72;100.00;52981.38;5026087;28;19921;-70
2023/04/05 04:14:30;;;;;;;;;;;;;;;-140.72;100.00;52946.88;5024554;28;19924;-71
2023/04/05 04:16:55;;;;;;;;;;;;;;;-140.72;100.00;52950.94;5028222;28;19960;-70
2023/04/05 04:19:20;;;;;;;;;;;;;;;-140.72;100.00;52955.00;5040716;28;19921;-70
2023/04/05 04:21:50;;;;;;;;;;;;;;;-140.72;100.00;53003.69;5029437;28;20284;-70
2023/04/05 04:24:17;;;;;;;;;;;;;;;-140.72;100.00;52999.66;5027409;28;19974;-71
2023/04/05 04:26:46;;;;;;;;;;;;;;;-140.72;100.00;52946.88;5029982;28;19922;-73
2023/04/05 04:29:17;;;;;;;;;;;;;;;-140.72;100.00;52957.03;5024935;27;19925;-71
2023/04/05 04:31:47;;;;;;;;;;;;;;;-140.72;100.00;52967.16;5048827;27;19920;-70
2023/04/05 04:34:12;;;;;;;;;;;;;;;-140.72;100.00;52959.06;5045065;27;20279;-69
2023/04/05 04:36:41;;;;;;;;;;;;;;;-140.72;100.00;52973.25;5034316;27;19921;-70
2023/04/05 04:39:07;;;;;;;;;;;;;;;-140.72;100.00;52969.19;5021393;28;19921;-69
2023/04/05 04:41:37;;;;;;;;;;;;;;;-140.72;100.00;52963.13;5024686;28;19922;-69
2023/04/05 04:44:02;;;;;;;;;;;;;;;-140.72;100.00;52981.38;5028418;28;19936;-69
2023/04/05 04:46:33;;;;;;;;;;;;;;;-140.72;100.00;52938.75;5024195;28;19921;-69
2023/04/05 04:48:58;;;;;;;;;;;;;;;-140.72;100.00;52987.47;5026536;28;19922;-71
2023/04/05 04:51:33;;;;;;;;;;;;;;;-140.72;100.00;52997.63;5028521;28;19921;-69
2023/04/05 04:53:58;;;;;;;;;;;;;;;-140.72;100.00;52983.41;5026637;28;19952;-70
2023/04/05 04:56:24;;;;;;;;;;;;;;;-140.72;100.00;52999.66;5027035;28;20371;-69
2023/04/05 04:58:49;;;;;;;;;;;;;;;-140.72;100.00;52955.00;5030434;28;19951;-69
2023/04/05 05:01:14;;;;;;;;;;;;;;;-140.72;100.00;52950.94;5031091;28;19931;-69
2023/04/05 05:03:41;;;;;;;;;;;;;;;-140.72;100.00;52991.53;5022102;28;19953;-69
2023/04/05 05:06:06;;;;;;;;;;;;;;;-140.72;100.00;52969.19;5025176;28;20291;-69
2023/04/05 05:08:31;;;;;;;;;;;;;;;-140.72;100.00;52971.22;5026244;28;19949;-69
2023/04/05 05:10:56;;;;;;;;;;;;;;;-140.72;100.00;52975.28;5029883;28;20007;-69
2023/04/05 05:13:22;;;;;;;;;;;;;;;-140.72;100.00;52975.28;5028025;28;19925;-68
2023/04/05 05:15:47;;;;;;;;;;;;;;;-140.72;100.00;52963.13;5030060;28;19917;-68
2023/04/05 05:18:12;;;;;;;;;;;;;;;-140.72;100.00;52963.13;5030453;28;19927;-68
2023/04/05 05:20:38;;;;;;;;;;;;;;;-140.72;100.00;52971.22;5027448;28;20511;-68
2023/04/05 05:23:04;;;;;;;;;;;;;;;-140.72;100.00;52967.16;5023669;28;19966;-69
2023/04/05 05:25:29;;;;;;;;;;;;;;;-140.72;100.00;52971.22;5023324;28;19964;-68
2023/04/05 05:27:54;;;;;;;;;;;;;;;-140.72;100.00;52977.31;5023197;28;19965;-69
2023/04/05 05:30:20;;;;;;;;;;;;;;;-140.72;100.00;52981.38;5046910;27;19919;-69
2023/04/05 05:32:45;;;;;;;;;;;;;;;-140.72;100.00;52987.47;5064422;27;19921;-69
2023/04/05 05:35:10;;;;;;;;;;;;;;;-140.72;100.00;52987.47;5042025;27;19925;-69
2023/04/05 05:37:36;;;;;;;;;;;;;;;-140.72;100.00;52950.94;5030045;28;19921;-69
2023/04/05 05:40:03;;;;;;;;;;;;;;;-140.72;100.00;52948.91;5027966;28;20025;-70
2023/04/05 05:42:28;;;;;;;;;;;;;;;-140.72;100.00;52975.28;5038757;28;20028;-70
2023/04/05 05:44:55;;;;;;;;;;;;;;;-140.72;100.00;52942.81;5025356;28;20019;-68
2023/04/05 05:47:20;;;;;;;;;;;;;;;-140.72;100.00;52993.56;5023138;28;19921;-68
2023/04/05 05:49:46;;;;;;;;;;;;;;;-140.72;100.00;52987.47;5028987;28;19924;-70
2023/04/05 05:52:12;;;;;;;;;;;;;;;-140.72;100.00;52959.06;5028243;28;19925;-71
2023/04/05 05:54:37;;;;;;;;;;;;;;;-140.72;100.00;52959.06;5027150;28;19921;-70
2023/04/05 05:57:02;;;;;;;;;;;;;;;-140.72;100.00;52971.22;5024839;28;19921;-71
2023/04/05 05:59:27;;;;;;;;;;;;;;;-140.72;100.00;52963.13;5023950;28;20349;-71
2023/04/05 06:01:53;;;;;;;;;;;;;;;-140.72;100.00;52969.19;5019367;28;19929;-71
2023/04/05 06:04:19;;;;;;;;;;;;;;;-140.72;100.00;52946.88;5042538;28;20272;-70
2023/04/05 06:06:46;;;;;;;;;;;;;;;-140.72;100.00;52983.41;5022068;28;20003;-69
2023/04/05 06:09:12;;;;;;;;;;;;;;;-140.72;100.00;52950.94;5021443;28;20302;-70
2023/04/05 06:11:37;;;;;;;;;;;;;;;-140.72;100.00;52944.84;5023697;28;19928;-70
2023/04/05 06:14:02;;;;;;;;;;;;;;;-140.72;100.00;52971.22;5023553;28;19990;-78
2023/04/05 06:16:29;;;;;;;;;;;;;;;-140.72;100.00;52965.16;5030061;28;19937;-69
2023/04/05 06:18:55;;;;;;;;;;;;;;;-140.72;100.00;52979.34;5024255;28;19967;-69
2023/04/05 06:21:20;;;;;;;;;;;;;;;-140.72;100.00;52946.88;5036966;28;19921;-68
2023/04/05 06:23:46;;;;;;;;;;;;;;;-140.72;100.00;52973.25;5033963;28;20083;-69
2023/04/05 06:26:15;;;;;;;;;;;;;;;-140.72;100.00;52952.97;5032792;28;20386;-70
2023/04/05 06:28:40;;;;;;;;;;;;;;;-140.72;100.00;52950.94;5034280;28;20383;-70
2023/04/05 06:31:05;;;;;;;;;;;;;;;-140.72;100.00;52959.06;5027731;28;19928;-70
2023/04/05 06:33:31;;;;;;;;;;;;;;;-140.72;100.00;52983.41;5020946;28;20375;-70
2023/04/05 06:35:56;;;;;;;;;;;;;;;-140.72;100.00;52946.88;5028453;28;19981;-70
2023/04/05 06:38:21;;;;;;;;;;;;;;;-140.72;100.00;52934.69;5028202;28;20027;-70
2023/04/05 06:40:46;;;;;;;;;;;;;;;-140.72;100.00;52946.88;5025560;28;20024;-70
2023/04/05 06:43:12;;;;;;;;;;;;;;;-140.72;100.00;52922.53;5027333;28;20073;-70
2023/04/05 06:45:37;;;;;;;;;;;;;;;-140.72;100.00;52942.81;5030696;28;19928;-70
2023/04/05 06:48:02;;;;;;;;;;;;;;;-140.72;100.00;52938.75;5033496;28;19917;-70
2023/04/05 06:50:28;;;;;;;;;;;;;;;-140.72;100.00;52948.91;5029105;28;19921;-69
2023/04/05 06:52:53;;;;;;;;;;;;;;;-140.72;100.00;52928.63;5031728;28;20335;-69
2023/04/05 06:55:18;;;;;;;;;;;;;;;-140.72;100.00;52924.56;5024098;28;19968;-69
2023/04/05 06:57:43;;;;;;;;;;;;;;;-140.72;100.00;52938.75;5030885;28;20325;-69
2023/04/05 07:00:10;;;;;;;;;;;;;;;-140.72;100.00;52914.41;5028370;28;19928;-69
2023/04/05 07:02:35;;;;;;;;;;;;;;;-140.72;100.00;52936.72;5060142;28;19921;-69
2023/04/05 07:05:04;;;;;;;;;;;;;;;-140.72;100.00;52906.28;5020592;28;19929;-71
2023/04/05 07:07:30;;;;;;;;;;;;;;;-140.72;100.00;52914.41;5024166;28;19987;-71
2023/04/05 07:09:55;;;;;;;;;;;;;;;-140.72;100.00;52920.50;5025461;28;19992;-69
2023/04/05 07:12:20;;;;;;;;;;;;;;;-140.72;100.00;52918.47;5025829;28;20021;-68
2023/04/05 07:14:45;;;;;;;;;;;;;;;-140.72;100.00;52906.28;5032817;28;19952;-70
2023/04/05 07:17:10;;;;;;;;;;;;;;;-140.72;100.00;52900.19;5029732;28;19932;-69
2023/04/05 07:19:36;;;;;;;;;;;;;;;-140.72;100.00;52881.94;5029476;28;19917;-69
2023/04/05 07:22:01;;;;;;;;;;;;;;;-140.72;100.00;52886.00;5030192;28;19936;-70
2023/04/05 07:24:27;;;;;;;;;;;;;;;-140.72;100.00;52906.28;5032492;28;20368;-68
2023/04/05 07:26:53;;;;;;;;;;;;;;;-140.72;100.00;52906.28;5027001;28;19952;-69
2023/04/05 07:29:18;;;;;;;;;;;;;;;-140.72;100.00;52873.81;5027056;28;19921;-70
2023/04/05 07:31:43;;;;;;;;;;;;;;;-140.72;100.00;52877.88;5030308;28;19928;-71
2023/04/05 07:34:19;;;;;;;;;;;;;;;-140.72;100.00;52898.16;5030296;28;19925;-72
2023/04/05 07:37:10;;;;;;;;;;;;;;;-140.72;100.00;52883.97;5031631;28;19921;-71
2023/04/05 07:39:35;;;;;;;;;;;;;;;-140.72;100.00;52886.00;5029413;28;19917;-72
2023/04/05 07:42:01;;;;;;;;;;;;;;;-140.72;100.00;52900.19;5017921;28;19928;-72
2023/04/05 07:44:26;;;;;;;;;;;;;;;-140.72;100.00;52845.41;5018412;28;19925;-69
2023/04/05 07:46:51;;;;;;;;;;;;;;;-140.72;100.00;52879.91;5020896;28;19921;-69
2023/04/05 07:49:16;;;;;;;;;;;;;;;-140.72;100.00;52857.59;5027397;27;19925;-69
2023/04/05 07:51:42;;;;;;;;;;;;;;;-140.72;100.00;52873.81;5021137;28;19944;-69
2023/04/05 07:54:07;;;;;;;;;;;;;;;-140.72;100.00;52861.66;5019994;28;20012;-69
2023/04/05 07:56:32;;;;;;;;;;;;;;;-140.72;100.00;52855.56;5027925;27;19942;-69
2023/04/05 07:58:58;;;;;;;;;;;;;;;-140.72;100.00;52857.59;5023020;28;20398;-70
2023/04/05 08:01:26;;;;;;;;;;;;;;;-140.72;100.00;52861.66;5029492;28;19966;-69
2023/04/05 08:03:58;;;;;;;;;;;;;;;-140.72;82.10;52863.66;5029319;28;20453;-70
2023/04/05 08:06:28;;;;;;;;;;;;;;;-140.72;54.65;52837.28;5030495;28;19951;-70
2023/04/05 08:08:54;;;;;;;;;;;;;;;-140.72;20.92;52814.97;5030134;28;19923;-70
2023/04/05 08:11:20;;;;;;;;;;;;;;;-140.72;0.00;52825.13;5020054;28;19973;-69
2023/04/05 08:13:45;;;;;;;;;;;;;;;-140.72;0.00;52849.47;5035849;28;19917;-69
2023/04/05 08:16:11;;;;;;;;;;;;;;;-140.72;0.00;52814.97;5027639;28;20397;-69
2023/04/05 08:18:36;;;;;;;;;;;;;;;-140.72;0.00;52792.66;5019814;28;19921;-70
2023/04/05 08:21:01;;;;;;;;;;;;;;;-140.72;0.00;52835.25;5023011;28;19960;-70
2023/04/05 08:23:27;;;;;;;;;;;;;;;-140.72;0.00;52792.66;5023149;28;20007;-70
2023/04/05 08:25:53;;;;;;;;;;;;;;;-140.72;0.00;52806.84;5026255;28;19921;-70
2023/04/05 08:28:18;;;;;;;;;;;;;;;-140.72;0.00;52798.72;5028503;28;19980;-69
2023/04/05 08:30:44;;;;;;;;;;;;;;;-140.72;0.00;52814.97;5027334;28;19928;-73
2023/04/05 08:33:10;;;;;;;;;;;;;;;-140.72;0.00;52821.06;5027249;28;19921;-71
2023/04/05 08:35:35;;;;;;;;;;;;;;;-140.72;0.00;52788.59;5019482;28;19982;-71
2023/04/05 08:38:01;;;;;;;;;;;;;;;-140.72;0.00;52804.81;5031325;28;19944;-72
2023/04/05 08:40:39;;;;;;;;;;;;;;;-140.72;0.00;52748.00;5023956;28;19936;-71
2023/04/05 08:43:30;;;;;;;;;;;;;;;-140.72;0.00;52774.38;5018311;28;19924;-70
2023/04/05 08:45:57;;;;;;;;;;;;;;;-140.72;0.00;52760.19;5031923;28;19966;-71
2023/04/05 08:48:22;;;;;;;;;;;;;;;-140.72;0.00;52776.41;5020846;28;19926;-70
2023/04/05 08:50:51;;;;;;;;;;;;;;;-140.72;0.00;52758.16;5028083;28;19928;-70
2023/04/05 08:53:17;;;;;;;;;;;;;;;-140.72;0.00;52756.13;5029459;28;20435;-72
2023/04/05 08:55:42;;;;;;;;;;;;;;;-140.72;0.00;52750.03;5022016;28;19921;-71
2023/04/05 08:58:11;;;;;;;;;;;;;;;-140.72;0.00;52784.53;5033692;27;19996;-73
2023/04/05 09:00:37;;;;;;;;;;;;;;;-140.72;0.00;52723.66;5023939;28;19921;-70
2023/04/05 09:03:02;;;;;;;;;;;;;;;-140.72;0.00;52756.13;5018097;28;20272;-71
2023/04/05 09:05:29;;;;;;;;;;;;;;;-140.72;0.00;52715.53;5029363;28;20407;-73
2023/04/05 09:07:56;;;;;;;;;;;;;;;-140.72;0.00;52674.94;5030978;28;20439;-77
2023/04/05 09:10:22;;;;;;;;;;;;;;;-140.72;0.00;52642.47;5021987;28;19930;-71
2023/04/05 09:12:48;;;;;;;;;;;;;;;-140.72;0.00;52618.13;5034382;28;19929;-70
2023/04/05 09:15:13;;;;;;;;;;;;;;;-140.72;0.00;52597.84;5019907;28;20610;-70
2023/04/05 09:17:40;;;;;;;;;;;;;;;-140.72;0.00;52622.19;5029823;28;19932;-71
2023/04/05 09:20:06;;;;;;;;;;;;;;;-140.72;0.00;52563.34;5029032;28;20371;-70
2023/04/05 09:22:40;;;;;;;;;;;;;;;-140.72;0.00;52620.16;5023974;28;19931;-71
2023/04/05 09:25:06;;;;;;;;;;;;;;;-140.72;0.00;52630.31;5020866;28;19945;-73
2023/04/05 09:27:31;;;;;;;;;;;;;;;-140.72;0.00;52589.72;5026654;28;20379;-72
2023/04/05 09:29:56;;;;;;;;;;;;;;;-140.72;0.00;52561.31;5021505;28;19925;-71
2023/04/05 09:32:24;;;;;;;;;;;;;;;-140.72;0.00;52577.53;5024618;28;19928;-71
2023/04/05 09:34:51;;;;;;;;;;;;;;;-140.72;0.00;52545.06;5019401;28;20397;-71
2023/04/05 09:37:18;;;;;;;;;;;;;;;-140.72;0.00;52597.84;5023490;28;19982;-72
2023/04/05 09:39:44;;;;;;;;;;;;;;;-140.72;0.00;52508.56;5037653;28;19982;-71
2023/04/05 09:42:14;;;;;;;;;;;;;;;-140.72;0.00;52541.03;5018754;28;19973;-69
2023/04/05 09:44:52;;;;;;;;;;;;;;;-140.72;0.00;52522.75;5018806;28;19928;-69
2023/04/05 09:47:18;;;;;;;;;;;;;;;-140.72;0.00;52514.63;5020320;28;20309;-69
2023/04/05 09:49:43;;;;;;;;;;;;;;;-140.72;0.00;52461.88;5026700;28;19928;-69
2023/04/05 09:52:20;;;;;;;;;;;;;;;-140.72;0.00;52494.34;5021907;28;19921;-71
2023/04/05 09:54:46;;;;;;;;;;;;;;;-140.72;0.00;52508.56;5040857;28;19928;-69
2023/04/05 09:57:11;;;;;;;;;;;;;;;-140.72;0.00;52443.63;5027134;28;19925;-71
2023/04/05 09:59:38;;;;;;;;;;;;;;;-140.72;0.00;52514.63;5020210;28;19925;-70
2023/04/05 10:02:03;;;;;;;;;;;;;;;-140.72;0.00;52472.03;5028027;28;20307;-70
2023/04/05 10:04:40;;;;;;;;;;;;;;;-140.72;0.00;52459.84;5024108;28;19922;-68
2023/04/05 10:07:06;;;;;;;;;;;;;;;-140.72;0.00;52429.41;5024561;28;19934;-68
2023/04/05 10:09:31;;;;;;;;;;;;;;;-140.72;0.00;52465.94;5028385;28;20421;-69
2023/04/05 10:11:57;;;;;;;;;;;;;;;-140.72;0.00;52496.38;5028846;28;19920;-68
2023/04/05 10:14:25;;;;;;;;;;;;;;;-140.72;0.00;52474.06;5024158;28;20369;-68
2023/04/05 10:17:09;;;;;;;;;;;;;;;-140.72;0.00;52508.56;5028496;28;19952;-68
2023/04/05 10:19:47;;;;;;;;;;;;;;;-140.72;0.00;52451.72;5021276;28;19921;-69
2023/04/05 10:22:19;;;;;;;;;;;;;;;-140.72;0.00;52480.16;5016152;28;19928;-69
2023/04/05 10:24:49;;;;;;;;;;;;;;;-140.72;0.00;52449.72;5015129;28;19925;-69
2023/04/05 10:27:26;;;;;;;;;;;;;;;-140.72;0.00;52443.63;5019836;28;19981;-68
2023/04/05 10:30:08;;;;;;;;;;;;;;;-140.72;0.00;52407.09;5023028;28;20023;-69
2023/04/05 10:32:42;;;;;;;;;;;;;;;-140.72;0.00;52390.84;5023841;28;19925;-69
2023/04/05 10:35:10;;;;;;;;;;;;;;;-140.72;0.00;52407.09;5029730;28;19978;-69
2023/04/05 10:37:35;;;;;;;;;;;;;;;-140.72;0.00;52394.91;5027365;28;19921;-69
2023/04/05 10:43:22;;;;;;;;;;;;;;;-140.72;0.00;52386.81;5022495;28;19924;-69
2023/04/05 10:45:48;;;;;;;;;;;;;;;-140.72;0.00;52313.75;5014162;28;19957;-69
2023/04/05 10:48:32;;;;;;;;;;;;;;;-140.72;0.00;52364.47;5019697;28;20302;-69
2023/04/05 10:50:57;;;;;;;;;;;;;;;-140.72;0.00;52338.09;5027982;28;19925;-69
2023/04/05 10:53:24;;;;;;;;;;;;;;;-140.72;0.00;52338.09;5027662;28;20390;-69
2023/04/05 10:55:49;;;;;;;;;;;;;;;-140.72;0.00;52305.63;5024897;28;20299;-69
2023/04/05 10:58:15;;;;;;;;;;;;;;;-140.72;0.00;52281.28;5022565;28;19929;-69
2023/04/05 11:00:40;;;;;;;;;;;;;;;-140.72;0.00;52285.34;5027466;28;20440;-69
2023/04/05 11:03:06;;;;;;;;;;;;;;;-140.72;0.00;52258.97;5027780;28;19929;-69
2023/04/05 11:05:32;;;;;;;;;;;;;;;-140.72;0.00;52192.00;5037081;28;20439;-70
2023/04/05 11:07:59;;;;;;;;;;;;;;;-140.72;0.00;52173.75;5031072;28;19925;-71
2023/04/05 11:10:25;;;;;;;;;;;;;;;-140.72;0.00;52275.19;5030431;28;19977;-72
2023/04/05 11:12:51;;;;;;;;;;;;;;;-140.72;0.00;52212.31;5029173;28;20299;-69
2023/04/05 11:15:31;;;;;;;;;;;;;;;-140.72;0.00;52175.78;5031116;28;19928;-71
2023/04/05 11:18:15;;;;;;;;;;;;;;;-140.72;0.00;52127.09;5019064;28;19929;-70
2023/04/05 11:20:41;;;;;;;;;;;;;;;-140.72;0.00;52135.19;5023034;28;19921;-69
2023/04/05 11:23:07;;;;;;;;;;;;;;;-140.72;0.00;52196.06;5023149;28;19925;-69
2023/04/05 11:25:36;;;;;;;;;;;;;;;-140.72;0.00;52169.69;5032425;28;19929;-70
2023/04/05 11:28:04;;;;;;;;;;;;;;;-140.72;0.00;52177.81;5025639;28;19926;-70
2023/04/05 11:30:45;;;;;;;;;;;;;;;-140.72;0.00;52236.66;5024217;28;19974;-70
2023/04/05 11:33:10;;;;;;;;;;;;;;;-140.72;0.00;52194.03;5026365;28;19956;-70
2023/04/05 11:35:38;;;;;;;;;;;;;;;-140.72;0.00;52157.53;5029108;28;19957;-70
2023/04/05 11:38:03;;;;;;;;;;;;;;;-140.72;0.00;52070.28;5037665;28;20361;-69
2023/04/05 11:40:29;;;;;;;;;;;;;;;-140.72;0.00;52041.88;5033826;28;19965;-70
2023/04/05 11:42:58;;;;;;;;;;;;;;;-140.72;0.00;52066.22;5020759;28;19921;-69
2023/04/05 11:45:24;;;;;;;;;;;;;;;-140.72;0.00;52076.34;5027011;28;19968;-68
2023/04/05 11:47:49;;;;;;;;;;;;;;;-140.72;0.00;52141.28;5030490;28;19970;-70
2023/04/05 11:50:15;;;;;;;;;;;;;;;-140.72;0.00;52179.84;5034340;28;19968;-74
2023/04/05 11:52:40;;;;;;;;;;;;;;;-140.72;0.00;52202.16;5018304;28;19933;-71
2023/04/05 11:55:05;;;;;;;;;;;;;;;-140.72;0.00;52175.78;5027590;28;19921;-70
2023/04/05 11:57:31;;;;;;;;;;;;;;;-140.72;0.00;52143.31;5024014;28;19921;-70
2023/04/05 11:59:57;;;;;;;;;;;;;;;-140.72;0.00;52171.72;5021941;28;20030;-70
2023/04/05 12:02:23;;;;;;;;;;;;;;;-140.72;0.00;52171.72;5018639;28;20002;-70
2023/04/05 12:04:52;;;;;;;;;;;;;;;-140.72;0.00;52277.22;5022412;28;20376;-70
2023/04/05 12:07:18;;;;;;;;;;;;;;;-140.72;0.00;52206.22;5022521;28;19964;-70
2023/04/05 12:09:56;;;;;;;;;;;;;;;-140.72;0.00;52118.97;5044802;28;20387;-69
2023/04/05 12:12:21;;;;;;;;;;;;;;;-140.72;0.00;52094.63;5024177;28;19946;-71
2023/04/05 12:14:46;;;;;;;;;;;;;;;-140.72;0.00;52096.66;5025725;28;20011;-71
2023/04/05 12:17:12;;;;;;;;;;;;;;;-140.72;0.00;52043.91;5019976;28;19979;-71
2023/04/05 12:19:37;;;;;;;;;;;;;;;-140.72;0.00;52090.56;5027578;28;19921;-71
2023/04/05 12:22:02;;;;;;;;;;;;;;;-140.72;0.00;52110.84;5024147;28;19936;-70
2023/04/05 12:24:28;;;;;;;;;;;;;;;-140.72;0.00;52137.22;5028174;28;20286;-70
2023/04/05 12:26:53;;;;;;;;;;;;;;;-140.72;0.00;52035.78;5029005;28;20494;-71